ADDS METAR Data INFO
IDs: Format: Raw Decoded Include TAF

Data at: 1517 UTC 11 Dec 2017

KC75 111455Z AUTO 17006KT 10SM CLR 01/M03 A2982 RMK AO2 T00101035
KC75 111435Z AUTO 18008KT 10SM SCT110 01/M04 A2985 RMK AO2 T00051037
KC75 111415Z AUTO 19009KT 10SM OVC110 00/M04 A2986 RMK AO2 T00001038
KC75 111355Z AUTO 18006KT 10SM OVC110 00/M04 A2988 RMK AO2 T10011039
KC75 111335Z AUTO 20006KT 10SM OVC110 00/M04 A2988 RMK AO2 T10031039
KC75 111315Z AUTO 18008KT 10SM SCT080 BKN100 OVC120 M01/M04 A2989 RMK AO2 T10061040
KC75 111255Z AUTO 18008KT 10SM SCT080 BKN090 OVC110 M01/M04 A2991 RMK AO2 T10101040
KC75 111235Z AUTO 18006KT 10SM BKN100 OVC120 M01/M04 A2994 RMK AO2 T10151041
KC75 111215Z AUTO 17005KT 10SM BKN120 M02/M04 A2997 RMK AO2 T10201042
KC75 111155Z AUTO 18004KT 10SM SCT120 M02/M05 A2998 RMK AO2 T10231046 11023 21077
KC75 111135Z AUTO 16004KT 10SM CLR M03/M05 A2998 RMK AO2 T10271050
KC75 111115Z AUTO 00000KT 10SM CLR M02/M05 A3000 RMK AO2 T10251047
KC75 111055Z AUTO 00000KT 10SM CLR M03/M05 A2999 RMK AO2 T10281046
KC75 111035Z AUTO 16003KT 10SM CLR M03/M05 A2998 RMK AO2 T10311049
KC75 111015Z AUTO 14005KT 10SM CLR M03/M05 A2999 RMK AO2 T10301050
KC75 110955Z AUTO 15004KT 10SM SCT120 M03/M05 A3001 RMK AO2 T10301050
KC75 110935Z AUTO 15005KT 10SM SCT120 M03/M05 A3002 RMK AO2 T10341051
KC75 110915Z AUTO 14003KT 10SM CLR M04/M05 A3003 RMK AO2 T10391050
KC75 110855Z AUTO 18003KT 7SM SCT100 M04/M05 A3005 RMK AO2 T10411051
KC75 110835Z AUTO 00000KT 10SM BKN100 OVC110 M04/M05 A3006 RMK AO2 T10411050
KC75 110815Z AUTO 00000KT 7SM SCT090 BKN110 M04/M05 A3005 RMK AO2 T10451055
KC75 110755Z AUTO 00000KT 7SM SCT095 M05/M06 A3004 RMK AO2 T10521060
KC75 110730Z AUTO 00000KT 10SM SCT095 M07/M08 A3006 RMK AO2 T10681077
KC75 110715Z AUTO 00000KT 7SM CLR M07/M08 A3007 RMK AO2 T10751083
KC75 110655Z AUTO 00000KT 7SM CLR M07/M08 A3007 RMK AO2 T10711079
KC75 110635Z AUTO 00000KT 7SM CLR M07/M08 A3007 RMK AO2 T10701081
KC75 110615Z AUTO 00000KT 10SM CLR M07/M08 A3008 RMK AO2 T10681079
KC75 110555Z AUTO 00000KT 7SM CLR M06/M08 A3008 RMK AO2 T10651078 10000 21070 400411070
KC75 110535Z AUTO 00000KT 7SM CLR M06/M08 A3010 RMK AO2 T10651077
KC75 110515Z AUTO 00000KT 10SM CLR M06/M07 A3010 RMK AO2 T10591073
KC75 110455Z AUTO 00000KT 10SM CLR M06/M07 A3011 RMK AO2 T10581075
KC75 110435Z AUTO 00000KT 10SM CLR M05/M07 A3011 RMK AO2 T10521068
KC75 110415Z AUTO 00000KT 10SM CLR M06/M08 A3011 RMK AO2 T10591077
KC75 110355Z AUTO 00000KT 10SM CLR M05/M07 A3011 RMK AO2 T10491067
KC75 110335Z AUTO 00000KT 10SM CLR M05/M07 A3010 RMK AO2 T10541070
KC75 110315Z AUTO 00000KT 10SM CLR M05/M07 A3011 RMK AO2 T10501067
KC75 110255Z AUTO 00000KT 10SM CLR M05/M07 A3011 RMK AO2 T10481069
KC75 110235Z AUTO 00000KT 10SM CLR M05/M07 A3011 RMK AO2 T10501072
KC75 110215Z AUTO 00000KT 10SM CLR M04/M07 A3010 RMK AO2 T10441071
KC75 110155Z AUTO 00000KT 10SM CLR M04/M07 A3010 RMK AO2 T10441071
KC75 110135Z AUTO 00000KT 10SM CLR M03/M06 A3009 RMK AO2 T10271060
KC75 110115Z AUTO 00000KT 10SM SCT120 M02/M06 A3008 RMK AO2 T10181058
KC75 110055Z AUTO 33003KT 10SM BKN120 M01/M05 A3008 RMK AO2 T10101055
KC75 110030Z AUTO 32003KT 10SM SCT120 M01/M05 A3007 RMK AO2 T10061053
KC75 110015Z AUTO 33003KT 10SM CLR 00/M05 A3007 RMK AO2 T10031052
KC75 102355Z AUTO 34005KT 10SM CLR 00/M05 A3007 RMK AO2 T00001052 10041 21001
KC75 102335Z AUTO 34005KT 10SM CLR 00/M05 A3005 RMK AO2 T00001054
KC75 102315Z AUTO 34009KT 10SM CLR 00/M05 A3005 RMK AO2 T00001055
KC75 102255Z AUTO 34009KT 10SM CLR 00/M05 A3004 RMK AO2 T00001055
KC75 102235Z AUTO 34008KT 10SM CLR 01/M05 A3003 RMK AO2 T00061053
KC75 102215Z AUTO 33007KT 10SM CLR 01/M05 A3003 RMK AO2 T00101052
KC75 102155Z AUTO 33010KT 10SM CLR 01/M05 A3001 RMK AO2 T00141051
KC75 102135Z AUTO 32011KT 10SM CLR 02/M05 A2999 RMK AO2 T00221050
KC75 102115Z AUTO 32011G16KT 10SM CLR 03/M05 A2998 RMK AO2 T00281049
KC75 102055Z AUTO 32011KT 10SM CLR 03/M05 A2997 RMK AO2 T00301048
KC75 102035Z AUTO 31011G17KT 10SM CLR 04/M05 A2996 RMK AO2 T00361047
KC75 102015Z AUTO 32013G19KT 10SM CLR 04/M05 A2994 RMK AO2 T00371047
KC75 101955Z AUTO 30010G21KT 10SM CLR 04/M05 A2994 RMK AO2 T00381048
KC75 101935Z AUTO 30013G19KT 10SM CLR 04/M05 A2993 RMK AO2 T00401050
KC75 101910Z AUTO 30008G16KT 10SM CLR 04/M05 A2991 RMK AO2 T00351051
KC75 101855Z AUTO 29009KT 10SM CLR 04/M05 A2992 RMK AO2 T00361051
KC75 101835Z AUTO 28010KT 10SM CLR 03/M05 A2991 RMK AO2 T00321054
KC75 101815Z AUTO 29007G14KT 10SM CLR 03/M05 A2991 RMK AO2 T00301054
KC75 101755Z AUTO 29008KT 10SM CLR 02/M06 A2991 RMK AO2 T00241057 10024 21044
KC75 101735Z AUTO 29008KT 10SM CLR 02/M06 A2993 RMK AO2 T00231058
KC75 101715Z AUTO 28012G15KT 10SM CLR 01/M06 A2994 RMK AO2 T00131060
KC75 101655Z AUTO 26010G15KT 10SM CLR 01/M07 A2993 RMK AO2 T00071066
KC75 101635Z AUTO 26010KT 10SM CLR 00/M07 A2992 RMK AO2 T00001070
KC75 101615Z AUTO 25010G15KT 10SM CLR 00/M07 A2992 RMK AO2 T10051073
KC75 101555Z AUTO 24010G14KT 10SM CLR 00/M07 A2992 RMK AO2 T10051074
KC75 101535Z AUTO 23010G15KT 10SM CLR M01/M08 A2993 RMK AO2 T10081076
KC75 101515Z AUTO 22011G15KT 10SM CLR M02/M08 A2993 RMK AO2 T10171077
KC75 101455Z AUTO 23010G19KT 10SM CLR M02/M08 A2993 RMK AO2 T10231080
KC75 101435Z AUTO 21011G16KT 10SM CLR M03/M08 A2993 RMK AO2 T10261079
KC75 101415Z AUTO 22013G17KT 10SM CLR M03/M08 A2994 RMK AO2 T10291084
KC75 101355Z AUTO 20012G15KT 10SM CLR M03/M09 A2993 RMK AO2 T10351086
KC75 101335Z AUTO 20010G16KT 10SM CLR M04/M09 A2994 RMK AO2 T10411088
KC75 101315Z AUTO 20008KT 10SM CLR M04/M09 A2994 RMK AO2 T10421088
KC75 101255Z AUTO 19007KT 10SM CLR M04/M08 A2995 RMK AO2 T10421085
KC75 101235Z AUTO 21007G14KT 10SM CLR M04/M08 A2996 RMK AO2 T10411085
KC75 101215Z AUTO 20008G16KT 10SM SCT090 M04/M09 A2996 RMK AO2 T10401089
KC75 101155Z AUTO 21011G15KT 10SM BKN090 M04/M09 A2997 RMK AO2 T10401091 11037 21062
KC75 101135Z AUTO 22010G14KT 10SM OVC090 M04/M09 A2998 RMK AO2 T10401090
KC75 101115Z AUTO 22008G14KT 10SM OVC100 M04/M09 A2999 RMK AO2 T10371086
KC75 101055Z AUTO 21007KT 10SM OVC100 M04/M09 A2999 RMK AO2 T10401086
KC75 101035Z AUTO 22010KT 10SM BKN100 M04/M09 A2999 RMK AO2 T10421090
KC75 101015Z AUTO 21008KT 10SM CLR M04/M09 A3000 RMK AO2 T10451091
KC75 100955Z AUTO 22007KT 10SM SCT100 M05/M09 A3001 RMK AO2 T10471090
KC75 100935Z AUTO 23008KT 10SM OVC100 M05/M09 A3003 RMK AO2 T10501090
KC75 100915Z AUTO 22006KT 10SM OVC100 M05/M09 A3003 RMK AO2 T10501090
KC75 100855Z AUTO 23008KT 10SM OVC100 M05/M09 A3005 RMK AO2 T10521090
KC75 100835Z AUTO 23008KT 10SM OVC110 M05/M09 A3006 RMK AO2 T10531092
KC75 100815Z AUTO 23006KT 10SM OVC110 M06/M09 A3006 RMK AO2 T10561090
KC75 100755Z AUTO 22006KT 10SM SCT110 M06/M09 A3006 RMK AO2 T10601092
KC75 100735Z AUTO 23006KT 10SM SCT120 M06/M09 A3007 RMK AO2 T10591095
KC75 100715Z AUTO 23004KT 10SM SCT120 M06/M10 A3008 RMK AO2 T10601099
KC75 100655Z AUTO 23005KT 10SM CLR M06/M10 A3009 RMK AO2 T10611100
KC75 100635Z AUTO 24005KT 10SM CLR M06/M10 A3010 RMK AO2 T10601100
KC75 100615Z AUTO 24005KT 10SM SCT110 M06/M10 A3011 RMK AO2 T10581101
KC75 100555Z AUTO 24005KT 10SM SCT110 M06/M10 A3011 RMK AO2 T10601101 11045 21086 400001086
KC75 100535Z AUTO 23005KT 10SM CLR M07/M10 A3011 RMK AO2 T10661104
KC75 100515Z AUTO 24004KT 10SM CLR M06/M11 A3012 RMK AO2 T10651107
KC75 100455Z AUTO 26004KT 10SM CLR M06/M11 A3013 RMK AO2 T10641106
KC75 100435Z AUTO 25004KT 10SM CLR M07/M11 A3012 RMK AO2 T10671108
KC75 100415Z AUTO 00000KT 10SM CLR M09/M12 A3012 RMK AO2 T10861116
KC75 100355Z AUTO 00000KT 10SM CLR M08/M11 A3013 RMK AO2 T10771110
KC75 100335Z AUTO 00000KT 10SM CLR M08/M11 A3013 RMK AO2 T10781112